createdAt,value
2019-05-11T00:00:55.130Z,94592.47
2019-05-11T00:04:02.942Z,94578.19
2019-05-11T00:07:10.617Z,94578.75
2019-05-11T00:10:18.419Z,94576.50
2019-05-11T00:13:25.722Z,94587.08
2019-05-11T00:16:33.108Z,94588.41
2019-05-11T00:19:40.326Z,94591.06
2019-05-11T00:22:47.845Z,94585.31
2019-05-11T00:25:55.615Z,94573.25
2019-05-11T00:29:03.012Z,94577.23
2019-05-11T00:32:10.242Z,94584.28
2019-05-11T00:35:17.553Z,94572.06
2019-05-11T00:38:24.754Z,94561.44
2019-05-11T00:41:31.979Z,94572.50
2019-05-11T00:44:39.850Z,94554.61
2019-05-11T00:47:47.347Z,94536.72
2019-05-11T00:50:54.725Z,94552.31
2019-05-11T00:54:02.378Z,94542.20
2019-05-11T00:57:09.791Z,94559.39
2019-05-11T01:00:18.003Z,94564.59
2019-05-11T01:03:25.418Z,94557.66
2019-05-11T01:06:32.736Z,94547.75
2019-05-11T01:09:39.929Z,94548.64
2019-05-11T01:12:47.237Z,94535.39
2019-05-11T01:15:55.003Z,94535.95
2019-05-11T01:19:02.917Z,94507.36
2019-05-11T01:22:10.323Z,94505.84
2019-05-11T01:25:17.642Z,94515.27
2019-05-11T01:28:25.083Z,94523.69
2019-05-11T01:31:32.615Z,94521.16
2019-05-11T01:34:39.938Z,94501.47
2019-05-11T01:37:47.614Z,94477.94
2019-05-11T01:40:58.722Z,94485.84
2019-05-11T01:44:04.623Z,94495.41
2019-05-11T01:47:11.905Z,94489.55
2019-05-11T01:50:20.024Z,94482.12
2019-05-11T01:53:27.714Z,94483.91
2019-05-11T01:56:35.105Z,94488.42
2019-05-11T01:59:42.313Z,94471.70
2019-05-11T02:02:50.066Z,94467.05
2019-05-11T02:05:57.925Z,94461.74
2019-05-11T02:09:06.316Z,94460.86
2019-05-11T02:12:13.636Z,94461.77
2019-05-11T02:15:21.192Z,94458.13
2019-05-11T02:21:43.561Z,94460.19
2019-05-11T02:24:50.946Z,94454.55
2019-05-11T02:27:58.186Z,94447.07
2019-05-11T02:31:05.424Z,94452.34
2019-05-11T02:34:13.041Z,94447.63
2019-05-11T02:37:20.337Z,94445.27
2019-05-11T02:40:27.817Z,94451.11
2019-05-11T02:43:35.221Z,94437.73
2019-05-11T02:46:42.611Z,94435.22
2019-05-11T02:49:50.628Z,94426.27
2019-05-11T02:52:58.960Z,94425.49
2019-05-11T02:56:06.661Z,94422.72
2019-05-11T02:59:14.210Z,94428.70
2019-05-11T03:02:21.432Z,94424.19
2019-05-11T03:05:31.685Z,94421.58
2019-05-11T03:08:39.731Z,94411.66
2019-05-11T03:11:55.336Z,94412.39
2019-05-11T03:14:56.532Z,94415.02
2019-05-11T03:18:04.291Z,94416.65
2019-05-11T03:21:11.446Z,94402.83
2019-05-11T03:24:18.634Z,94399.27
2019-05-11T03:27:25.963Z,94394.70
2019-05-11T03:30:33.348Z,94393.37
2019-05-11T03:33:40.844Z,94391.94
2019-05-11T03:36:48.254Z,94391.27
2019-05-11T03:39:55.480Z,94390.35
2019-05-11T03:43:03.074Z,94387.47
2019-05-11T03:46:10.265Z,94377.59
2019-05-11T03:49:17.760Z,94366.64
2019-05-11T03:52:25.184Z,94361.96
2019-05-11T03:55:32.861Z,94357.19
2019-05-11T03:58:40.170Z,94351.45
2019-05-11T04:01:47.708Z,94357.53
2019-05-11T04:04:56.136Z,94355.72
2019-05-11T04:08:03.444Z,94353.23
2019-05-11T04:11:10.894Z,94350.03
2019-05-11T04:14:18.059Z,94345.03
2019-05-11T04:17:25.483Z,94348.19
2019-05-11T04:20:32.824Z,94349.91
2019-05-11T04:23:40.505Z,94340.00
2019-05-11T04:26:48.014Z,94346.71
2019-05-11T04:29:56.032Z,94350.67
2019-05-11T04:33:03.670Z,94351.79
2019-05-11T04:36:11.003Z,94341.83
2019-05-11T04:39:18.296Z,94336.45
2019-05-11T04:42:25.587Z,94349.56
2019-05-11T04:45:33.233Z,94339.88
2019-05-11T04:48:40.515Z,94340.59
2019-05-11T04:51:48.017Z,94350.14
2019-05-11T04:54:55.411Z,94341.44
2019-05-11T04:58:02.899Z,94354.42
2019-05-11T05:01:10.514Z,94369.09
2019-05-11T05:04:18.042Z,94360.14
2019-05-11T05:07:25.226Z,94369.27
2019-05-11T05:10:32.637Z,94360.98
2019-05-11T05:13:40.247Z,94376.23
2019-05-11T05:16:48.465Z,94376.83
2019-05-11T05:19:55.860Z,94390.73
2019-05-11T05:23:03.576Z,94400.66
2019-05-11T05:26:11.259Z,94402.53
2019-05-11T05:29:18.866Z,94409.48
2019-05-11T05:32:27.802Z,94415.30
2019-05-11T05:35:35.895Z,94408.66
2019-05-11T05:38:43.346Z,94396.89
2019-05-11T05:41:57.329Z,94401.80
2019-05-11T05:45:06.351Z,94418.88
2019-05-11T05:48:13.743Z,94428.00
2019-05-11T05:51:21.370Z,94446.34
2019-05-11T05:54:28.667Z,94454.20
2019-05-11T05:57:35.898Z,94455.66
2019-05-11T06:00:43.407Z,94453.78
2019-05-11T06:03:50.788Z,94457.63
2019-05-11T06:06:58.191Z,94460.20
2019-05-11T06:10:06.372Z,94465.94
2019-05-11T06:13:13.780Z,94470.98
2019-05-11T06:16:21.271Z,94473.98
2019-05-11T06:19:28.585Z,94467.41
2019-05-11T06:22:36.434Z,94446.25
2019-05-11T06:25:43.759Z,94409.09
2019-05-11T06:28:51.231Z,94371.02
2019-05-11T06:32:00.381Z,94342.31
2019-05-11T06:35:10.451Z,94368.83
2019-05-11T06:38:17.738Z,94397.71
2019-05-11T06:41:25.511Z,94410.66
2019-05-11T06:44:32.983Z,94416.91
2019-05-11T06:47:40.707Z,94433.66
2019-05-11T06:50:48.127Z,94457.84
2019-05-11T06:53:55.699Z,94456.64
2019-05-11T06:57:03.398Z,94471.00
2019-05-11T07:00:11.375Z,94465.41
2019-05-11T07:03:18.774Z,94461.31
2019-05-11T07:06:30.127Z,94459.93
2019-05-11T07:09:35.566Z,94464.67
2019-05-11T07:12:42.869Z,94466.20
2019-05-11T07:15:50.422Z,94474.15
2019-05-11T07:18:57.899Z,94472.59
2019-05-11T07:22:05.403Z,94462.09
2019-05-11T07:25:13.025Z,94466.98
2019-05-11T07:28:20.204Z,94460.98
2019-05-11T07:31:27.396Z,94468.71
2019-05-11T07:34:34.802Z,94481.13
2019-05-11T07:37:42.018Z,94479.33
2019-05-11T07:40:49.262Z,94468.64
2019-05-11T07:43:58.779Z,94455.87
2019-05-11T07:47:07.942Z,94453.14
2019-05-11T07:50:17.939Z,94451.13
2019-05-11T07:53:24.897Z,94454.05
2019-05-11T07:56:32.617Z,94453.06
2019-05-11T07:59:40.000Z,94452.13
2019-05-11T08:02:48.111Z,94441.72
2019-05-11T08:05:58.056Z,94446.98
2019-05-11T08:09:08.321Z,94446.39
2019-05-11T08:12:15.475Z,94445.81
2019-05-11T08:15:22.896Z,94442.55
2019-05-11T08:18:30.182Z,94442.55
2019-05-11T08:21:38.875Z,94441.80
2019-05-11T08:24:48.145Z,94437.19
2019-05-11T08:27:55.636Z,94439.69
2019-05-11T08:31:03.363Z,94447.16
2019-05-11T08:34:11.063Z,94448.23
2019-05-11T08:37:18.895Z,94430.05
2019-05-11T08:40:28.768Z,94432.55
2019-05-11T08:43:38.689Z,94450.74
2019-05-11T08:46:47.882Z,94441.59
2019-05-11T08:49:55.018Z,94435.84
2019-05-11T08:53:02.523Z,94443.27
2019-05-11T08:56:13.156Z,94440.27
2019-05-11T08:59:19.217Z,94438.34
2019-05-11T09:02:27.836Z,94450.20
2019-05-11T09:05:35.429Z,94446.56
2019-05-11T09:08:42.725Z,94452.48
2019-05-11T09:11:49.950Z,94454.35
2019-05-11T09:14:58.130Z,94460.51
2019-05-11T09:18:08.271Z,94458.39
2019-05-11T09:21:15.759Z,94456.50
2019-05-11T09:24:23.451Z,94454.45
2019-05-11T09:27:31.679Z,94453.47
2019-05-11T09:30:39.431Z,94460.91
2019-05-11T09:33:47.970Z,94450.91
2019-05-11T09:36:58.658Z,94455.58
2019-05-11T09:40:07.876Z,94443.50
2019-05-11T09:43:17.865Z,94442.14
2019-05-11T09:46:27.911Z,94450.41
2019-05-11T09:49:47.096Z,94462.21
2019-05-11T09:52:48.996Z,94463.19
2019-05-11T09:55:58.663Z,94461.19
2019-05-11T09:59:08.575Z,94449.30
2019-05-11T10:02:20.425Z,94452.72
2019-05-11T10:05:28.429Z,94445.25
2019-05-11T10:08:35.344Z,94449.59
2019-05-11T10:11:43.175Z,94448.41
2019-05-11T10:14:50.397Z,94443.09
2019-05-11T10:17:59.022Z,94447.92
2019-05-11T10:21:08.143Z,94454.60
2019-05-11T10:24:17.804Z,94449.45
2019-05-11T10:27:28.007Z,94459.44
2019-05-11T10:30:38.388Z,94464.00
2019-05-11T10:33:48.835Z,94472.76
2019-05-11T10:36:58.017Z,94465.05
2019-05-11T10:40:06.515Z,94471.12
2019-05-11T10:43:14.174Z,94475.35
2019-05-11T10:46:23.583Z,94476.56
2019-05-11T10:49:31.641Z,94480.63
2019-05-11T10:52:39.966Z,94479.87
2019-05-11T10:55:59.405Z,94476.93
2019-05-11T10:59:18.726Z,94479.00
2019-05-11T11:02:27.766Z,94479.72
2019-05-11T11:05:38.269Z,94481.88
2019-05-11T11:08:45.791Z,94486.23
2019-05-11T11:11:53.116Z,94498.63
2019-05-11T11:15:01.200Z,94502.04
2019-05-11T11:18:09.007Z,94514.45
2019-05-11T11:21:22.098Z,94508.19
2019-05-11T11:24:28.718Z,94513.55
2019-05-11T11:27:38.107Z,94528.52
2019-05-11T11:30:47.979Z,94537.97
2019-05-11T11:33:56.222Z,94535.89
2019-05-11T11:37:04.763Z,94519.95
2019-05-11T11:40:14.520Z,94513.59
2019-05-11T11:43:23.832Z,94506.95
2019-05-11T11:46:31.659Z,94500.09
2019-05-11T11:49:39.918Z,94483.09
2019-05-11T11:52:48.432Z,94480.63
2019-05-11T11:55:56.172Z,94470.50
2019-05-11T11:59:03.763Z,94464.95
2019-05-11T12:02:11.790Z,94465.75
2019-05-11T12:05:20.126Z,94461.14
2019-05-11T12:08:28.936Z,94454.78
2019-05-11T12:11:38.080Z,94446.00
2019-05-11T12:14:48.035Z,94445.99
2019-05-11T12:17:58.583Z,94449.86
2019-05-11T12:21:08.005Z,94457.33
2019-05-11T12:24:15.750Z,94458.77
2019-05-11T12:27:23.168Z,94466.04
2019-05-11T12:30:30.986Z,94464.85
2019-05-11T12:33:38.774Z,94472.41
2019-05-11T12:36:48.003Z,94478.59
2019-05-11T12:39:58.284Z,94475.95
2019-05-11T12:43:08.153Z,94480.47
2019-05-11T12:46:18.620Z,94483.30
2019-05-11T12:49:25.676Z,94486.52
2019-05-11T12:52:33.397Z,94496.41
2019-05-11T12:55:41.336Z,94506.40
2019-05-11T12:58:50.409Z,94523.75
2019-05-11T13:01:59.281Z,94538.34
2019-05-11T13:05:08.662Z,94541.09
2019-05-11T13:08:18.473Z,94555.77
2019-05-11T13:11:28.444Z,94556.70
2019-05-11T13:14:38.165Z,94580.09
2019-05-11T13:17:48.962Z,94587.75
2019-05-11T13:20:58.799Z,94595.70
2019-05-11T13:24:08.370Z,94574.83
2019-05-11T13:27:17.940Z,94578.21
2019-05-11T13:30:27.796Z,94568.53
2019-05-11T13:33:35.633Z,94568.53
2019-05-11T13:36:44.154Z,94581.07
2019-05-11T13:39:52.358Z,94574.76
2019-05-11T13:43:00.671Z,94600.33
2019-05-11T13:46:08.877Z,94615.41
2019-05-11T13:49:17.848Z,94629.19
2019-05-11T13:52:28.535Z,94675.81
2019-05-11T13:55:35.939Z,94652.83
2019-05-11T13:58:43.809Z,94652.18
2019-05-11T14:01:51.720Z,94644.31
2019-05-11T14:04:59.501Z,94634.92
2019-05-11T14:08:08.119Z,94627.37
2019-05-11T14:11:18.148Z,94613.67
2019-05-11T14:14:25.973Z,94617.11
2019-05-11T14:17:33.746Z,94613.22
2019-05-11T14:20:41.208Z,94622.05
2019-05-11T14:23:48.786Z,94610.19
2019-05-11T14:26:57.858Z,94610.27
2019-05-11T14:30:08.555Z,94604.98
2019-05-11T14:33:18.033Z,94595.71
2019-05-11T14:36:28.047Z,94628.72
2019-05-11T14:39:35.604Z,94598.38
2019-05-11T14:42:43.631Z,94568.61
2019-05-11T14:45:51.523Z,94582.16
2019-05-11T14:49:00.725Z,94590.13
2019-05-11T14:52:08.612Z,94621.05
2019-05-11T14:55:18.412Z,94639.89
2019-05-11T14:58:27.988Z,94658.09
2019-05-11T15:01:38.183Z,94658.42
2019-05-11T15:04:48.225Z,94646.53
2019-05-11T15:07:55.052Z,94645.09
2019-05-11T15:11:03.335Z,94627.77
2019-05-11T15:14:11.207Z,94645.63
2019-05-11T15:17:18.943Z,94637.99
2019-05-11T15:20:28.489Z,94630.91
2019-05-11T15:23:37.840Z,94625.98
2019-05-11T15:26:45.739Z,94613.36
2019-05-11T15:29:53.925Z,94590.84
2019-05-11T15:33:02.485Z,94590.66
2019-05-11T15:36:10.879Z,94577.23
2019-05-11T15:39:18.657Z,94611.63
2019-05-11T15:42:28.655Z,94631.17
2019-05-11T15:45:38.025Z,94616.92
2019-05-11T15:48:56.682Z,94638.32
2019-05-11T15:51:57.770Z,94631.73
2019-05-11T15:55:08.077Z,94624.77
2019-05-11T15:58:21.489Z,94626.81
2019-05-11T16:01:25.928Z,94632.91
2019-05-11T16:04:33.927Z,94641.61
2019-05-11T16:07:41.147Z,94648.91
2019-05-11T16:10:49.128Z,94647.14
2019-05-11T16:13:58.550Z,94647.13
2019-05-11T16:17:05.872Z,94658.05
2019-05-11T16:20:14.206Z,94664.16
2019-05-11T16:23:21.794Z,94664.56
2019-05-11T16:26:29.117Z,94675.22
2019-05-11T16:29:38.473Z,94671.20
2019-05-11T16:32:47.977Z,94673.56
2019-05-11T16:35:55.052Z,94678.66
2019-05-11T16:39:09.990Z,94675.86
2019-05-11T16:42:15.429Z,94687.59
2019-05-11T16:45:24.027Z,94698.47
2019-05-11T16:48:31.786Z,94686.91
2019-05-11T16:51:39.356Z,94690.59
2019-05-11T16:54:47.760Z,94697.00
2019-05-11T16:57:58.594Z,94689.55
2019-05-11T17:01:08.367Z,94695.77
2019-05-11T17:04:16.408Z,94691.23
2019-05-11T17:07:23.902Z,94685.20
2019-05-11T17:10:31.307Z,94689.19
2019-05-11T17:13:39.155Z,94699.88
2019-05-11T17:16:48.171Z,94711.53
2019-05-11T17:19:58.769Z,94725.75
2019-05-11T17:23:05.888Z,94724.16
2019-05-11T17:26:13.602Z,94734.77
2019-05-11T17:29:21.417Z,94741.54
2019-05-11T17:32:29.464Z,94737.94
2019-05-11T17:35:37.059Z,94735.27
2019-05-11T17:38:44.595Z,94736.52
2019-05-11T17:41:52.071Z,94731.23
2019-05-11T17:44:59.657Z,94730.21
2019-05-11T17:48:08.472Z,94743.39
2019-05-11T17:51:21.725Z,94759.21
2019-05-11T17:54:28.305Z,94773.14
2019-05-11T17:57:38.089Z,94778.90
2019-05-11T18:00:45.084Z,94795.05
2019-05-11T18:03:53.401Z,94794.37
2019-05-11T18:07:01.176Z,94796.02
2019-05-11T18:10:09.080Z,94797.67
2019-05-11T18:13:17.193Z,94808.36
2019-05-11T18:16:24.590Z,94810.42
2019-05-11T18:19:32.254Z,94813.48
2019-05-11T18:22:39.774Z,94819.49
2019-05-11T18:25:48.069Z,94815.73
2019-05-11T18:28:55.713Z,94817.92
2019-05-11T18:32:03.783Z,94820.11
2019-05-11T18:35:11.614Z,94820.86
2019-05-11T18:38:19.116Z,94832.25
2019-05-11T18:41:28.253Z,94828.06
2019-05-11T18:44:37.933Z,94825.40
2019-05-11T18:47:48.325Z,94834.70
2019-05-11T18:50:58.871Z,94836.62
2019-05-11T18:54:08.605Z,94845.81
2019-05-11T19:00:19.882Z,94868.06
2019-05-11T19:03:28.307Z,94869.31
2019-05-11T19:06:37.843Z,94872.08
2019-05-11T19:09:45.588Z,94877.13
2019-05-11T19:12:53.924Z,94886.94
2019-05-11T19:16:01.990Z,94882.80
2019-05-11T19:19:10.186Z,94880.69
2019-05-11T19:22:18.485Z,94891.78
2019-05-11T19:25:26.416Z,94891.36
2019-05-11T19:28:34.746Z,94899.63
2019-05-11T19:31:42.519Z,94891.88
2019-05-11T19:34:50.284Z,94900.00
2019-05-11T19:37:58.130Z,94901.30
2019-05-11T19:41:07.887Z,94898.25
2019-05-11T19:44:18.527Z,94908.22
2019-05-11T19:47:25.377Z,94914.00
2019-05-11T19:50:32.783Z,94915.02
2019-05-11T19:53:40.637Z,94915.94
2019-05-11T19:56:51.770Z,94914.08
2019-05-11T19:59:58.379Z,94911.73
2019-05-11T20:03:08.842Z,94918.24
2019-05-11T20:06:15.651Z,94912.26
2019-05-11T20:09:23.062Z,94911.91
2019-05-11T20:12:31.048Z,94918.11
2019-05-11T20:15:38.548Z,94929.91
2019-05-11T20:18:46.866Z,94930.73
2019-05-11T20:21:54.685Z,94934.00
2019-05-11T20:25:02.572Z,94943.46
2019-05-11T20:28:10.074Z,94947.94
2019-05-11T20:31:18.352Z,94944.18
2019-05-11T20:34:28.280Z,94949.77
2019-05-11T20:37:38.417Z,94942.72
2019-05-11T20:40:48.339Z,94950.20
2019-05-11T20:43:55.256Z,94942.48
2019-05-11T20:47:02.903Z,94955.98
2019-05-11T20:50:10.617Z,94960.40
2019-05-11T20:53:18.265Z,94956.66
2019-05-11T20:56:28.278Z,94951.02
2019-05-11T20:59:35.452Z,94947.45
2019-05-11T21:02:42.987Z,94950.61
2019-05-11T21:05:50.571Z,94952.75
2019-05-11T21:08:57.860Z,94962.01
2019-05-11T21:12:07.933Z,94964.92
2019-05-11T21:15:16.419Z,94966.84
2019-05-11T21:18:23.854Z,94964.94
2019-05-11T21:21:46.039Z,94968.83
2019-05-11T21:24:40.948Z,94965.44
2019-05-11T21:27:48.834Z,94977.62
2019-05-11T21:30:58.397Z,94985.30
2019-05-11T21:34:08.047Z,94995.43
2019-05-11T21:37:15.252Z,94993.48
2019-05-11T21:40:22.696Z,94999.09
2019-05-11T21:43:30.015Z,94996.36
2019-05-11T21:46:38.842Z,94999.04
2019-05-11T21:49:48.509Z,95005.38
2019-05-11T21:52:55.915Z,95001.67
2019-05-11T21:56:03.587Z,95002.45
2019-05-11T21:59:10.928Z,95012.58
2019-05-11T22:02:18.651Z,95020.70
2019-05-11T22:05:28.353Z,95019.98
2019-05-11T22:08:35.792Z,95020.89
2019-05-11T22:11:43.295Z,95023.58
2019-05-11T22:14:50.605Z,95021.72
2019-05-11T22:17:58.572Z,95030.34
2019-05-11T22:21:08.454Z,95027.62
2019-05-11T22:24:17.760Z,95028.48
2019-05-11T22:27:24.792Z,95031.61
2019-05-11T22:30:32.526Z,95037.13
2019-05-11T22:33:40.259Z,95041.27
2019-05-11T22:36:47.996Z,95031.06
2019-05-11T22:39:57.688Z,95029.60
2019-05-11T22:43:04.794Z,95031.83
2019-05-11T22:46:12.462Z,95027.80
2019-05-11T22:49:19.648Z,95029.73
2019-05-11T22:52:36.110Z,95022.11
2019-05-11T22:55:38.249Z,95034.96
2019-05-11T22:58:49.693Z,95031.84
2019-05-11T23:01:56.214Z,95026.79
2019-05-11T23:05:04.066Z,95035.88
2019-05-11T23:08:12.387Z,95036.22
2019-05-11T23:11:20.333Z,95034.83
2019-05-11T23:14:28.286Z,95034.23
2019-05-11T23:17:38.462Z,95024.27
2019-05-11T23:20:47.475Z,95034.45
2019-05-11T23:23:54.451Z,95035.85
2019-05-11T23:27:01.993Z,95036.88
2019-05-11T23:30:10.125Z,95025.09
2019-05-11T23:33:18.397Z,95028.00
2019-05-11T23:36:28.013Z,95029.47
2019-05-11T23:39:35.207Z,95033.25
2019-05-11T23:42:42.392Z,95034.07
2019-05-11T23:45:49.812Z,95041.59
2019-05-11T23:48:58.101Z,95040.11
2019-05-11T23:52:07.654Z,95046.47
2019-05-11T23:55:18.691Z,95042.20
2019-05-11T23:58:28.125Z,95038.13
